Time;durP1;ratioP1;P1;durP2;ratioP2;P2;SDS_P1;SDS_P2;PMS_P1;PMS_P2;Temp;Humidity;BMP_temperature;BMP_pressure;BME280_temperature;BME280_humidity;BME280_pressure;Samples;Min_cycle;Max_cycle;Signal;HPM_P1;HPM_P2
2022/05/04 00:00:09;;;;;;;5.00;4.40;;;;;;;17.92;51.91;101258.19;4930062;28;20050;-81
2022/05/04 00:02:39;;;;;;;6.07;4.55;;;;;;;17.67;51.79;101212.50;4928993;29;20490;-82
2022/05/04 00:05:08;;;;;;;6.03;4.97;;;;;;;17.89;51.59;101258.53;4929693;29;20581;-82
2022/05/04 00:07:34;;;;;;;5.38;4.90;;;;;;;17.87;51.59;101256.00;4929701;29;20314;-81
2022/05/04 00:10:02;;;;;;;7.60;4.93;;;;;;;17.76;51.86;101244.72;4929741;29;20058;-82
2022/05/04 00:12:28;;;;;;;4.60;4.28;;;;;;;17.58;52.02;101224.25;4929666;28;20054;-81
2022/05/04 00:14:55;;;;;;;6.47;5.15;;;;;;;17.69;51.82;101256.16;4929764;29;20056;-82
2022/05/04 00:17:22;;;;;;;6.13;5.53;;;;;;;17.68;52.41;101253.63;4945331;28;20047;-82
2022/05/04 00:19:49;;;;;;;5.53;5.03;;;;;;;17.63;52.29;101248.75;4947350;28;20341;-81
2022/05/04 00:22:21;;;;;;;5.30;4.82;;;;;;;17.72;52.58;101255.81;4929824;28;20051;-82
2022/05/04 00:24:48;;;;;;;6.95;4.85;;;;;;;17.53;51.93;101218.53;4930597;28;20051;-82
2022/05/04 00:27:15;;;;;;;5.40;4.90;;;;;;;17.65;51.65;101230.63;4933405;29;20070;-81
2022/05/04 00:29:43;;;;;;;5.97;4.80;;;;;;;17.68;52.21;101246.41;4933983;29;20473;-82
2022/05/04 00:32:14;;;;;;;4.63;4.22;;;;;;;17.61;52.80;101250.75;4933317;28;20058;-81
2022/05/04 00:34:41;;;;;;;7.68;4.65;;;;;;;17.58;52.67;101237.66;4933551;29;20055;-81
2022/05/04 00:37:08;;;;;;;5.47;4.82;;;;;;;17.56;52.23;101241.53;4933552;28;20096;-82
2022/05/04 00:39:35;;;;;;;5.43;4.93;;;;;;;17.10;52.59;101177.56;4933567;29;20319;-80
2022/05/04 00:42:12;;;;;;;5.63;4.75;;;;;;;17.42;52.52;101235.78;4933375;28;20051;-82
2022/05/04 00:44:42;;;;;;;4.53;4.10;;;;;;;17.43;52.92;101225.94;4950149;28;20054;-81
2022/05/04 00:47:09;;;;;;;6.93;4.68;;;;;;;17.29;52.78;101214.81;4933264;29;20332;-81
2022/05/04 00:49:37;;;;;;;5.82;4.97;;;;;;;17.42;52.50;101224.22;4933037;29;20062;-81
2022/05/04 00:52:04;;;;;;;7.03;5.03;;;;;;;17.01;52.96;101157.09;4932932;28;20430;-81
2022/05/04 00:54:32;;;;;;;5.20;4.63;;;;;;;17.29;52.60;101232.78;4948865;28;20055;-82
2022/05/04 00:57:00;;;;;;;6.38;4.95;;;;;;;17.28;52.45;101240.00;4933629;29;20067;-81
2022/05/04 00:59:30;;;;;;;5.78;5.18;;;;;;;17.17;53.03;101226.88;4932659;29;20055;-80
2022/05/04 01:01:57;;;;;;;6.03;4.95;;;;;;;16.78;52.89;101189.91;4932868;28;20059;-80
2022/05/04 01:04:25;;;;;;;5.72;4.90;;;;;;;16.28;53.23;101102.22;4932706;29;20087;-81
2022/05/04 01:06:52;;;;;;;5.03;4.63;;;;;;;16.99;52.95;101228.81;4950194;28;20055;-82
2022/05/04 01:09:17;;;;;;;5.53;5.03;;;;;;;16.64;52.84;101166.34;4950037;28;20062;-81
2022/05/04 01:11:46;;;;;;;8.82;4.47;;;;;;;17.18;52.79;101239.28;4932725;28;20062;-81
2022/05/04 01:14:14;;;;;;;5.75;5.18;;;;;;;16.96;52.68;101196.97;4933302;29;20377;-81
2022/05/04 01:16:43;;;;;;;5.15;4.65;;;;;;;17.32;52.35;101250.38;4932645;29;20465;-83
2022/05/04 01:19:11;;;;;;;5.43;4.90;;;;;;;17.32;52.41;101240.47;4932635;28;20556;-82
2022/05/04 01:21:38;;;;;;;6.00;4.72;;;;;;;16.92;51.99;101174.16;4932599;29;20062;-81
2022/05/04 01:24:05;;;;;;;5.50;5.00;;;;;;;16.98;52.05;101193.13;4949842;28;20054;-80
2022/05/04 01:26:32;;;;;;;5.13;4.57;;;;;;;16.87;52.30;101185.41;4932708;28;20063;-80
2022/05/04 01:28:58;;;;;;;5.05;4.43;;;;;;;17.30;52.11;101245.19;4932628;29;20070;-80
2022/05/04 01:31:25;;;;;;;4.55;4.15;;;;;;;17.29;52.53;101252.38;4932917;29;20074;-81
2022/05/04 01:33:52;;;;;;;6.65;5.22;;;;;;;16.47;52.16;101117.22;4932760;29;20061;-81
2022/05/04 01:36:18;;;;;;;5.32;4.82;;;;;;;17.17;52.14;101236.78;4934026;29;20056;-80
2022/05/04 01:38:45;;;;;;;7.55;5.30;;;;;;;17.19;52.64;101251.69;4935737;29;20215;-81
2022/05/04 01:43:58;;;;;;;5.53;5.03;;;;;;;17.05;53.00;101244.28;4949328;28;20499;-81
2022/05/04 01:46:24;;;;;;;5.15;4.75;;;;;;;16.66;53.31;101194.69;4949330;28;20055;-80
2022/05/04 01:48:52;;;;;;;6.82;5.65;;;;;;;16.89;53.46;101250.41;4948341;28;20216;-81
2022/05/04 01:51:18;;;;;;;5.93;4.95;;;;;;;16.79;54.04;101250.53;4933299;29;20562;-82
2022/05/04 01:53:45;;;;;;;5.53;4.90;;;;;;;16.66;54.30;101250.13;4939138;29;20098;-82
2022/05/04 01:56:12;;;;;;;5.55;4.93;;;;;;;16.57;54.57;101246.56;4940796;28;20054;-82
2022/05/04 01:58:39;;;;;;;5.45;4.95;;;;;;;16.55;54.73;101245.03;4936858;29;20175;-81
2022/05/04 02:01:06;;;;;;;6.80;5.47;;;;;;;16.56;54.38;101249.44;4949539;29;20051;-83
2022/05/04 02:03:33;;;;;;;6.43;4.97;;;;;;;16.25;54.44;101199.00;4931807;29;20070;-82
2022/05/04 02:05:59;;;;;;;7.75;4.90;;;;;;;16.42;54.65;101227.56;4949354;28;20086;-81
2022/05/04 02:08:26;;;;;;;5.50;4.93;;;;;;;16.45;54.29;101237.94;4932065;28;20470;-82
2022/05/04 02:10:53;;;;;;;5.57;5.07;;;;;;;16.17;54.23;101193.63;4931877;29;20494;-82
2022/05/04 02:13:20;;;;;;;6.25;5.45;;;;;;;15.48;54.06;101080.19;4949845;28;20434;-81
2022/05/04 02:15:53;;;;;;;7.88;5.82;;;;;;;16.62;54.20;101257.66;4933057;29;20063;-81
2022/05/04 02:18:20;;;;;;;6.05;5.45;;;;;;;16.05;54.03;101160.06;4932067;29;20055;-81
2022/05/04 02:20:46;;;;;;;6.63;5.20;;;;;;;16.50;53.88;101231.28;4948656;28;20047;-81
2022/05/04 02:23:13;;;;;;;7.05;5.32;;;;;;;16.67;54.19;101257.16;4948457;28;20059;-80
2022/05/04 02:25:40;;;;;;;5.18;4.65;;;;;;;16.51;53.74;101241.03;4948815;28;20055;-81
2022/05/04 02:28:07;;;;;;;8.45;5.10;;;;;;;16.45;53.88;101232.59;4931545;29;20359;-82
2022/05/04 02:30:33;;;;;;;6.25;5.28;;;;;;;16.03;54.23;101181.63;4948514;28;20047;-81
2022/05/04 02:33:00;;;;;;;5.80;5.25;;;;;;;16.12;54.16;101195.94;4948840;28;20051;-82
2022/05/04 02:38:20;;;;;;;6.55;5.45;;;;;;;16.31;54.74;101246.63;4926119;28;20359;-80
2022/05/04 02:40:46;;;;;;;5.15;4.75;;;;;;;16.03;54.39;101206.56;4948398;28;20055;-81
2022/05/04 02:43:13;;;;;;;5.90;5.30;;;;;;;16.09;55.12;101220.31;4930970;28;20508;-81
2022/05/04 02:45:40;;;;;;;6.82;4.80;;;;;;;16.06;54.82;101215.28;4931504;28;20055;-81
2022/05/04 02:48:08;;;;;;;6.85;5.25;;;;;;;16.15;54.70;101250.00;4932467;29;20142;-82
2022/05/04 02:50:35;;;;;;;5.15;4.63;;;;;;;16.21;55.38;101249.41;4931753;29;20062;-81
2022/05/04 02:53:04;;;;;;;5.70;5.20;;;;;;;16.02;55.35;101234.38;4931465;29;20504;-81
2022/05/04 02:55:31;;;;;;;5.75;5.18;;;;;;;16.01;55.44;101248.72;4931255;29;20043;-81
2022/05/04 02:57:58;;;;;;;5.80;5.30;;;;;;;15.65;55.57;101196.22;4931687;29;20066;-80
2022/05/04 03:00:25;;;;;;;6.05;5.35;;;;;;;15.92;55.69;101247.00;4931296;29;20051;-81
2022/05/04 03:02:54;;;;;;;5.53;4.90;;;;;;;15.91;55.67;101256.03;4930583;29;20070;-81
2022/05/04 03:05:22;;;;;;;5.32;4.82;;;;;;;15.79;55.73;101233.16;4930583;29;20516;-81
2022/05/04 03:07:48;;;;;;;6.28;5.68;;;;;;;15.93;55.46;101258.56;4930395;28;20055;-81
2022/05/04 03:10:15;;;;;;;5.30;4.80;;;;;;;15.87;55.69;101260.00;4931273;28;20074;-81
2022/05/04 03:12:43;;;;;;;6.35;5.85;;;;;;;15.76;55.68;101244.19;4948182;28;20405;-82
2022/05/04 03:15:10;;;;;;;5.60;4.80;;;;;;;15.94;55.60;101273.63;4947840;28;20364;-83
2022/05/04 03:17:36;;;;;;;5.57;5.10;;;;;;;15.89;55.68;101274.06;4947550;28;20051;-81
2022/05/04 03:20:05;;;;;;;6.82;5.63;;;;;;;15.60;56.01;101240.34;4930542;29;20137;-82
2022/05/04 03:22:32;;;;;;;5.85;5.30;;;;;;;15.78;55.91;101272.50;4947626;28;20066;-81
2022/05/04 03:24:59;;;;;;;9.32;5.72;;;;;;;15.64;55.86;101253.44;4930740;29;20066;-81
2022/05/04 03:27:26;;;;;;;7.18;5.40;;;;;;;15.75;56.14;101250.53;4930341;29;20521;-80
2022/05/04 03:29:58;;;;;;;;;;;;;;;15.90;55.97;101273.09;4931744;29;20576;-81
2022/05/04 03:32:25;;;;;;;7.15;4.97;;;;;;;15.92;55.66;101268.44;4930542;29;19934;-82
2022/05/04 03:34:51;;;;;;;5.80;5.20;;;;;;;15.83;56.19;101277.38;4930353;28;20051;-81
2022/05/04 03:37:18;;;;;;;5.95;5.05;;;;;;;15.49;56.02;101219.19;4929988;29;20058;-82
2022/05/04 03:39:45;;;;;;;6.45;5.80;;;;;;;15.78;56.00;101272.50;4896749;29;20051;-82
2022/05/04 03:42:12;;;;;;;6.97;5.38;;;;;;;15.47;56.22;101231.88;4926191;29;20058;-81
2022/05/04 03:44:47;;;;;;;5.55;5.07;;;;;;;15.41;56.28;101226.28;4915509;28;20066;-81
2022/05/04 03:47:14;;;;;;;6.15;5.25;;;;;;;15.46;56.22;101240.91;4913760;28;20773;-80
2022/05/04 03:49:41;;;;;;;6.03;5.53;;;;;;;15.67;56.37;101279.88;4931655;28;20059;-82
2022/05/04 03:52:09;;;;;;;8.70;5.57;;;;;;;15.66;56.44;101283.56;4931643;28;20490;-82
2022/05/04 03:54:36;;;;;;;6.82;6.13;;;;;;;15.41;56.26;101245.00;4909358;28;20047;-83
2022/05/04 03:57:05;;;;;;;6.18;5.65;;;;;;;15.45;56.73;101259.78;4897633;29;20415;-83
2022/05/04 03:59:32;;;;;;;8.02;5.57;;;;;;;15.62;56.61;101288.38;4911145;29;20044;-81
2022/05/04 04:01:59;;;;;;;6.60;5.78;;;;;;;15.43;56.72;101261.75;4918093;29;20051;-82
2022/05/04 04:04:29;;;;;;;5.57;5.07;;;;;;;14.27;56.54;101083.22;4922358;29;20048;-83
2022/05/04 04:06:55;;;;;;;6.13;4.93;;;;;;;15.52;56.39;101285.75;4900604;29;20059;-80
2022/05/04 04:09:22;;;;;;;6.85;6.25;;;;;;;15.56;56.86;101289.00;4913774;29;20056;-82
2022/05/04 04:11:49;;;;;;;5.80;5.30;;;;;;;15.47;56.65;101269.31;4926816;29;20252;-82
2022/05/04 04:14:15;;;;;;;5.30;4.90;;;;;;;15.63;56.82;101295.38;4929193;29;20348;-82
2022/05/04 04:16:42;;;;;;;6.90;5.85;;;;;;;15.62;56.61;101300.91;4913248;29;20051;-81
2022/05/04 04:19:09;;;;;;;6.03;5.03;;;;;;;15.56;56.66;101300.53;4913512;29;20051;-81
2022/05/04 04:21:52;;;;;;;6.65;5.57;;;;;;;15.50;57.06;101300.28;4913711;29;20059;-81
2022/05/04 04:24:24;;;;;;;5.90;5.40;;;;;;;15.16;57.18;101228.72;4913773;29;20103;-80
2022/05/04 04:26:51;;;;;;;6.03;5.47;;;;;;;15.52;57.27;101299.13;4913786;29;20062;-82
2022/05/04 04:29:18;;;;;;;7.05;5.13;;;;;;;15.59;57.20;101315.44;4932416;29;20142;-81
2022/05/04 04:31:45;;;;;;;7.20;6.10;;;;;;;15.26;57.40;101250.03;4916729;28;20056;-81
2022/05/04 04:34:12;;;;;;;9.50;6.05;;;;;;;15.60;57.50;101322.47;4952630;28;20058;-81
2022/05/04 04:36:40;;;;;;;6.85;6.25;;;;;;;15.55;57.44;101320.25;4953861;28;20527;-82
2022/05/04 04:39:06;;;;;;;6.35;5.75;;;;;;;15.56;57.74;101321.09;4953194;28;20059;-82
2022/05/04 04:41:33;;;;;;;7.10;6.10;;;;;;;15.29;57.70;101271.13;4953592;28;20055;-83
2022/05/04 04:44:01;;;;;;;7.00;6.20;;;;;;;15.59;58.12;101321.63;4953688;28;20069;-81
2022/05/04 04:46:29;;;;;;;6.95;5.32;;;;;;;15.21;57.83;101249.66;4953734;28;20489;-82
2022/05/04 04:48:55;;;;;;;6.78;6.10;;;;;;;15.38;57.73;101284.44;4937338;28;20113;-82
2022/05/04 04:51:22;;;;;;;7.43;5.82;;;;;;;15.64;58.11;101325.69;4948422;28;20043;-80
2022/05/04 04:53:49;;;;;;;6.78;6.07;;;;;;;15.66;58.32;101334.41;4949601;28;20203;-82
2022/05/04 04:56:16;;;;;;;9.32;6.90;;;;;;;15.62;58.44;101314.28;4934033;29;20299;-81
2022/05/04 04:58:42;;;;;;;8.20;6.07;;;;;;;15.23;57.74;101251.19;4933856;29;20047;-82
2022/05/04 05:01:09;;;;;;;7.25;6.50;;;;;;;15.69;58.63;101328.75;4933557;29;20071;-82
2022/05/04 05:03:36;;;;;;;8.52;7.50;;;;;;;15.64;58.61;101317.66;4933684;28;20051;-83
2022/05/04 05:06:03;;;;;;;10.18;7.28;;;;;;;15.78;58.05;101333.22;4944355;28;20055;-81
2022/05/04 05:08:29;;;;;;;7.05;6.32;;;;;;;15.82;58.45;101342.63;4965357;28;20074;-82
2022/05/04 05:10:56;;;;;;;12.65;5.80;;;;;;;15.22;58.25;101237.94;4970360;28;20790;-82
2022/05/04 05:13:23;;;;;;;6.80;6.15;;;;;;;15.80;57.96;101325.88;4969963;28;20057;-81
2022/05/04 05:16:08;;;;;;;14.02;6.22;;;;;;;15.83;57.57;101322.91;4949028;28;20055;-82
2022/05/04 05:18:38;;;;;;;8.20;5.53;;;;;;;15.95;57.46;101337.75;4933663;29;20127;-82
2022/05/04 05:21:05;;;;;;;8.30;5.65;;;;;;;16.04;57.63;101349.34;4934386;29;20062;-82
2022/05/04 05:23:32;;;;;;;6.57;5.90;;;;;;;15.95;57.22;101328.88;4950408;28;20071;-82
2022/05/04 05:25:59;;;;;;;6.28;5.25;;;;;;;16.12;57.09;101340.56;4949772;28;20233;-82
2022/05/04 05:28:26;;;;;;;7.25;5.97;;;;;;;16.29;56.54;101355.78;4934144;29;20086;-82
2022/05/04 05:30:53;;;;;;;6.60;5.20;;;;;;;16.37;56.65;101363.88;4935431;29;20059;-83
2022/05/04 05:33:20;;;;;;;6.03;5.38;;;;;;;16.47;56.21;101357.56;4951046;29;20050;-83
2022/05/04 05:35:47;;;;;;;6.47;5.88;;;;;;;16.15;56.14;101294.72;4953063;29;20062;-81
2022/05/04 05:38:14;;;;;;;6.53;5.97;;;;;;;16.58;56.32;101357.31;4952589;28;20386;-81
2022/05/04 05:40:42;;;;;;;7.97;6.25;;;;;;;16.45;56.31;101328.22;4938653;28;20059;-82
2022/05/04 05:43:09;;;;;;;6.93;5.72;;;;;;;16.48;55.95;101321.72;4953921;28;20442;-81
2022/05/04 05:45:37;;;;;;;7.88;6.35;;;;;;;16.68;54.75;101339.28;4953654;28;20058;-82
2022/05/04 05:48:04;;;;;;;7.22;6.00;;;;;;;16.90;54.90;101361.22;4951904;28;20054;-82
2022/05/04 05:50:33;;;;;;;6.57;5.80;;;;;;;16.90;55.19;101359.38;4952508;28;20485;-81
2022/05/04 05:53:02;;;;;;;6.63;5.43;;;;;;;17.05;54.70;101356.94;4952061;28;20136;-82
2022/05/04 05:55:30;;;;;;;6.68;5.60;;;;;;;16.96;53.87;101339.13;4969155;28;20207;-82
2022/05/04 05:57:59;;;;;;;5.43;4.93;;;;;;;17.04;53.74;101340.00;4952125;28;20058;-81
2022/05/04 06:00:26;;;;;;;7.10;5.40;;;;;;;16.94;53.76;101316.97;4969378;28;20142;-81
2022/05/04 06:02:55;;;;;;;6.05;5.00;;;;;;;17.37;53.69;101376.88;4952061;28;20157;-82
2022/05/04 06:05:21;;;;;;;6.28;5.70;;;;;;;17.46;53.15;101374.03;4949527;28;20347;-81
2022/05/04 06:07:51;;;;;;;7.78;4.90;;;;;;;17.36;53.12;101348.34;4964066;28;20139;-81
2022/05/04 06:10:18;;;;;;;5.90;5.00;;;;;;;17.53;53.71;101376.94;4908227;28;20055;-83
2022/05/04 06:12:45;;;;;;;5.53;5.03;;;;;;;17.44;52.15;101337.63;4938972;29;20270;-81
2022/05/04 06:15:14;;;;;;;5.70;5.07;;;;;;;17.80;51.80;101366.94;4950435;28;20054;-81
2022/05/04 06:17:42;;;;;;;6.28;4.53;;;;;;;17.72;51.31;101348.97;4950374;28;20141;-82
2022/05/04 06:20:09;;;;;;;5.47;4.82;;;;;;;17.75;51.47;101358.53;4952203;28;20054;-83
2022/05/04 06:22:36;;;;;;;4.88;4.47;;;;;;;17.70;51.36;101342.91;4942353;28;20090;-81
2022/05/04 06:25:03;;;;;;;5.15;4.65;;;;;;;17.69;51.25;101343.91;4952355;28;20070;-81
2022/05/04 06:27:30;;;;;;;5.45;4.95;;;;;;;17.96;51.66;101385.75;4930069;29;20047;-81
2022/05/04 06:35:28;;;;;;;7.78;4.22;;;;;;;17.34;51.29;101259.13;4925701;29;20087;-82
2022/05/04 06:37:55;;;;;;;5.13;4.63;;;;;;;17.83;52.30;101323.66;4940354;28;20425;-82
2022/05/04 06:40:22;;;;;;;10.05;4.93;;;;;;;17.96;51.62;101334.72;4950471;28;20314;-82
2022/05/04 06:42:49;;;;;;;5.22;4.28;;;;;;;18.30;51.58;101384.78;4949740;28;20043;-82
2022/05/04 06:45:16;;;;;;;5.80;5.20;;;;;;;17.84;51.01;101314.56;4950103;28;20051;-82
2022/05/04 06:47:43;;;;;;;5.20;4.70;;;;;;;18.21;51.16;101386.66;4949723;28;20069;-82
2022/05/04 06:50:10;;;;;;;6.45;5.68;;;;;;;18.27;50.99;101379.75;4949800;28;20349;-83
2022/05/04 06:52:37;;;;;;;7.30;5.18;;;;;;;17.25;51.50;101234.94;4936392;28;20055;-82
2022/05/04 06:55:08;;;;;;;6.90;5.13;;;;;;;18.22;51.53;101392.84;4948253;28;20477;-82
2022/05/04 06:57:36;;;;;;;5.78;5.28;;;;;;;18.02;51.65;101350.19;4949955;28;20500;-82
2022/05/04 07:00:06;;;;;;;7.15;6.30;;;;;;;17.99;50.98;101345.16;4951172;28;20047;-81
2022/05/04 07:02:33;;;;;;;7.07;5.60;;;;;;;18.10;51.87;101363.63;4949955;28;20421;-83
2022/05/04 07:05:01;;;;;;;6.40;5.90;;;;;;;18.21;51.87;101381.28;4968202;28;20054;-83
2022/05/04 07:07:27;;;;;;;14.38;8.07;;;;;;;18.22;51.73;101374.88;4951035;28;20062;-82
2022/05/04 07:09:54;;;;;;;8.27;6.35;;;;;;;18.19;51.83;101377.06;4966273;28;20166;-84
2022/05/04 07:12:21;;;;;;;9.32;7.35;;;;;;;18.34;52.22;101386.13;4949962;28;20050;-83
2022/05/04 07:14:48;;;;;;;12.23;7.00;;;;;;;18.32;52.00;101380.91;4949502;28;20057;-83
2022/05/04 07:17:18;;;;;;;7.68;6.88;;;;;;;18.39;52.18;101375.72;4950264;28;20057;-82
2022/05/04 07:19:46;;;;;;;7.80;6.65;;;;;;;18.48;52.39;101390.84;4949625;28;20066;-83
2022/05/04 07:22:14;;;;;;;7.38;6.53;;;;;;;18.49;52.38;101379.06;4966744;28;20058;-83
2022/05/04 07:24:40;;;;;;;7.63;6.85;;;;;;;18.65;51.46;101380.91;4949860;28;20162;-83
2022/05/04 07:27:07;;;;;;;8.63;6.60;;;;;;;18.64;51.62;101383.75;4948419;28;20047;-82
2022/05/04 07:29:34;;;;;;;8.95;7.10;;;;;;;18.68;52.17;101382.41;4931797;28;20047;-81
2022/05/04 07:32:01;;;;;;;12.35;7.05;;;;;;;18.75;51.84;101383.41;4931482;29;20110;-82
2022/05/04 07:34:29;;;;;;;8.18;6.80;;;;;;;18.87;51.46;101386.63;4930541;29;20047;-82
2022/05/04 07:36:57;;;;;;;10.95;7.43;;;;;;;18.35;50.98;101305.34;4931711;29;20062;-81
2022/05/04 07:42:21;;;;;;;6.90;6.00;;;;;;;18.58;51.18;101326.13;4948398;28;20047;-83
2022/05/04 07:44:49;;;;;;;7.07;6.40;;;;;;;18.82;51.35;101352.16;4931850;28;20059;-82
2022/05/04 07:47:23;;;;;;;8.32;5.68;;;;;;;19.02;50.48;101362.53;4948810;29;20055;-83
2022/05/04 07:49:49;;;;;;;7.57;6.30;;;;;;;18.98;51.24;101362.88;4931616;28;20051;-81
2022/05/04 07:52:16;;;;;;;7.43;5.57;;;;;;;19.04;51.21;101360.50;4944707;28;20058;-82
2022/05/04 07:54:43;;;;;;;8.35;6.60;;;;;;;18.88;50.82;101324.53;4966745;28;20043;-83
2022/05/04 07:57:10;;;;;;;9.30;6.80;;;;;;;19.10;50.68;101367.88;4967874;28;20070;-81
2022/05/04 07:59:37;;;;;;;7.18;6.47;;;;;;;19.12;50.31;101360.47;4967576;28;20055;-81
2022/05/04 08:04:50;;;;;;;7.38;6.68;;;;;;;18.75;50.61;101276.66;4968013;28;20055;-81
2022/05/04 08:07:18;;;;;;;8.20;6.93;;;;;;;18.64;50.77;101255.53;4950520;28;20061;-81
2022/05/04 08:09:45;;;;;;;6.85;6.25;;;;;;;19.43;50.54;101393.63;4951355;28;20515;-81
2022/05/04 08:12:14;;;;;;;6.93;6.25;;;;;;;19.49;50.86;101383.16;4950917;28;20071;-81
2022/05/04 08:14:41;;;;;;;17.98;7.45;;;;;;;19.62;50.33;101397.75;4966324;28;20142;-81
2022/05/04 08:17:07;;;;;;;7.00;5.53;;;;;;;19.61;50.14;101400.63;4950667;28;20058;-81
2022/05/04 08:19:34;;;;;;;6.13;5.60;;;;;;;19.71;49.85;101400.44;4952603;28;20047;-79
2022/05/04 08:22:01;;;;;;;6.95;6.13;;;;;;;19.71;49.96;101401.28;4956826;28;20058;-83
2022/05/04 08:24:28;;;;;;;7.22;6.15;;;;;;;19.62;49.69;101396.94;4957832;28;20468;-82
2022/05/04 08:26:55;;;;;;;6.28;5.72;;;;;;;19.65;50.08;101402.78;4952364;28;20055;-81
2022/05/04 08:29:23;;;;;;;7.53;6.93;;;;;;;19.21;50.10;101327.13;4950327;28;20066;-81
2022/05/04 08:31:49;;;;;;;7.45;5.88;;;;;;;19.56;50.48;101386.84;4967571;28;20129;-82
2022/05/04 08:34:16;;;;;;;7.45;5.97;;;;;;;19.51;51.09;101384.69;4950616;28;20061;-82
2022/05/04 08:36:43;;;;;;;6.53;5.60;;;;;;;19.64;50.48;101397.59;4950306;28;20050;-81
2022/05/04 08:39:10;;;;;;;6.45;5.82;;;;;;;19.42;50.43;101348.91;4950142;28;20499;-81
2022/05/04 08:41:39;;;;;;;6.53;5.78;;;;;;;19.02;50.36;101290.69;4950435;28;20061;-80
2022/05/04 08:44:08;;;;;;;7.72;6.00;;;;;;;19.64;49.64;101370.66;4950577;28;20062;-81
2022/05/04 08:46:40;;;;;;;7.07;6.38;;;;;;;19.94;48.73;101403.16;4970012;28;20046;-82
2022/05/04 08:49:08;;;;;;;7.75;5.78;;;;;;;19.92;49.09;101405.19;4953784;28;20061;-81
2022/05/04 08:51:36;;;;;;;5.43;4.93;;;;;;;19.73;49.60;101366.91;4953789;28;20056;-82
2022/05/04 08:54:05;;;;;;;5.88;4.88;;;;;;;19.59;49.85;101324.56;4953843;28;20054;-81
2022/05/04 08:56:33;;;;;;;6.45;5.95;;;;;;;20.03;47.73;101373.28;4953488;28;20303;-80
2022/05/04 08:59:05;;;;;;;6.95;6.28;;;;;;;20.20;47.97;101400.97;4953466;28;20085;-81
2022/05/04 09:01:33;;;;;;;6.53;5.93;;;;;;;19.94;48.04;101363.56;4953226;28;20456;-81
2022/05/04 09:04:00;;;;;;;6.88;6.18;;;;;;;20.32;47.55;101404.06;4953831;28;20065;-82
2022/05/04 09:06:30;;;;;;;9.55;6.07;;;;;;;20.27;47.57;101406.47;4953129;28;20141;-82
2022/05/04 09:09:10;;;;;;;8.43;6.95;;;;;;;19.89;46.93;101332.81;4953333;28;20053;-83
2022/05/04 09:11:43;;;;;;;6.47;5.68;;;;;;;19.89;46.31;101319.34;4953648;28;20460;-84
2022/05/04 09:14:13;;;;;;;5.88;5.32;;;;;;;19.20;46.60;101188.19;4953659;28;20070;-84
2022/05/04 09:16:40;;;;;;;6.18;5.00;;;;;;;20.65;46.84;101407.31;4953865;28;20051;-84
2022/05/04 09:19:08;;;;;;;7.85;5.60;;;;;;;20.78;46.29;101409.41;4970621;28;20055;-83
2022/05/04 09:21:36;;;;;;;5.75;5.25;;;;;;;20.63;45.38;101352.75;4952533;28;20117;-83
2022/05/04 09:24:04;;;;;;;8.80;5.47;;;;;;;21.05;44.24;101394.44;4954361;28;20047;-85
2022/05/04 09:26:32;;;;;;;5.70;5.20;;;;;;;20.91;44.37;101331.34;4955329;28;20059;-83
2022/05/04 09:29:04;;;;;;;5.93;5.30;;;;;;;21.19;44.54;101373.88;4954999;28;20065;-83
2022/05/04 09:31:31;;;;;;;5.57;5.15;;;;;;;21.21;44.17;101352.91;4953169;28;20134;-84
2022/05/04 09:34:03;;;;;;;7.90;4.95;;;;;;;21.46;43.76;101379.66;4967648;28;20251;-84
2022/05/04 09:45:15;;;;;;;7.90;6.00;;;;;;;22.21;42.64;101381.09;4949038;28;20053;-84
2022/05/04 09:47:45;;;;;;;7.90;5.82;;;;;;;22.26;42.35;101348.03;4932952;28;20055;-85
2022/05/04 09:50:13;;;;;;;9.77;6.15;;;;;;;22.43;42.26;101362.09;4932878;29;20051;-85
2022/05/04 09:52:45;;;;;;;5.78;5.18;;;;;;;22.55;41.53;101350.56;4932405;29;20051;-84
2022/05/04 09:55:22;;;;;;;5.43;4.93;;;;;;;22.60;41.66;101348.09;4931500;29;20051;-85
2022/05/04 09:57:52;;;;;;;6.00;5.40;;;;;;;23.04;41.46;101367.75;4931164;28;20051;-84
2022/05/04 10:00:21;;;;;;;6.75;4.68;;;;;;;23.01;41.06;101347.34;4931834;28;20066;-84
2022/05/04 10:02:52;;;;;;;5.88;5.35;;;;;;;22.93;40.52;101333.09;4928583;29;20493;-83
2022/05/04 10:05:20;;;;;;;6.47;5.72;;;;;;;23.35;39.77;101369.13;4929244;29;20058;-85
2022/05/04 10:07:52;;;;;;;5.60;5.10;;;;;;;23.41;39.92;101376.47;4931174;29;20420;-83
2022/05/04 10:10:22;;;;;;;6.22;5.65;;;;;;;21.97;39.05;101129.00;4950920;28;20134;-83
2022/05/04 10:12:52;;;;;;;10.85;6.03;;;;;;;23.60;38.72;101351.31;4931710;29;20055;-85
2022/05/04 10:15:20;;;;;;;5.30;4.80;;;;;;;23.60;38.55;101351.31;4931395;29;20433;-83
2022/05/04 10:17:53;;;;;;;6.22;5.25;;;;;;;23.84;38.30;101368.91;4949649;28;20051;-82
2022/05/04 10:20:30;;;;;;;6.93;5.50;;;;;;;23.91;38.48;101362.66;4936133;28;20165;-84
2022/05/04 10:23:02;;;;;;;9.07;5.15;;;;;;;24.14;37.71;101356.84;4930747;29;20054;-83
2022/05/04 10:25:35;;;;;;;8.10;5.43;;;;;;;23.74;37.14;101276.31;4948700;28;20337;-84
2022/05/04 10:28:07;;;;;;;6.20;5.60;;;;;;;24.18;36.64;101328.28;4931536;29;20063;-84
2022/05/04 10:30:34;;;;;;;6.50;4.60;;;;;;;24.30;37.14;101342.88;4931134;29;20138;-83
2022/05/04 10:33:08;;;;;;;5.07;4.57;;;;;;;24.44;37.01;101340.97;4930949;28;20051;-84
2022/05/04 10:35:38;;;;;;;4.60;4.20;;;;;;;24.60;36.84;101339.75;4950124;28;20051;-84
2022/05/04 10:38:10;;;;;;;6.43;5.78;;;;;;;24.54;36.65;101314.28;4952321;28;20051;-84
2022/05/04 10:40:58;;;;;;;6.05;5.45;;;;;;;24.91;36.28;101334.44;4933856;29;20063;-83
2022/05/04 10:43:40;;;;;;;6.43;5.28;;;;;;;25.07;36.42;101329.59;4930622;29;20520;-85
2022/05/04 10:46:11;;;;;;;5.45;4.75;;;;;;;25.18;36.15;101331.66;4930647;28;20138;-84
2022/05/04 10:49:04;;;;;;;5.70;5.20;;;;;;;24.90;36.44;101296.63;4930651;29;20469;-83
2022/05/04 10:51:34;;;;;;;4.80;4.30;;;;;;;25.25;36.49;101320.78;4930585;29;20481;-83
2022/05/04 10:54:07;;;;;;;4.85;4.45;;;;;;;25.08;35.82;101256.03;4947852;28;20047;-84
2022/05/04 10:56:45;;;;;;;6.22;5.63;;;;;;;25.76;34.55;101301.66;4929185;28;20412;-84
2022/05/04 10:59:24;;;;;;;4.65;4.25;;;;;;;25.92;34.55;101313.06;4930489;29;20059;-84
2022/05/04 11:01:56;;;;;;;4.75;4.35;;;;;;;25.91;34.20;101286.94;4930515;29;20062;-83
2022/05/04 11:04:24;;;;;;;4.97;4.55;;;;;;;25.83;34.66;101270.84;4947462;29;20061;-84
2022/05/04 11:06:53;;;;;;;5.75;4.55;;;;;;;26.23;33.60;101307.56;4947486;29;20047;-84
2022/05/04 11:09:24;;;;;;;5.00;4.60;;;;;;;26.33;34.39;101295.34;4946495;28;20059;-83
2022/05/04 11:11:53;;;;;;;5.10;4.70;;;;;;;26.53;34.25;101303.28;4930160;29;20429;-83
2022/05/04 11:14:22;;;;;;;5.28;4.78;;;;;;;26.53;32.93;101285.13;4930597;29;20051;-85
2022/05/04 11:16:51;;;;;;;5.85;4.43;;;;;;;25.89;33.07;101191.13;4930243;29;20482;-84
2022/05/04 11:23:00;;;;;;;;;;;;;;;26.72;32.36;101288.66;4947616;29;20094;-85
2022/05/04 11:25:37;;;;;;;4.93;4.05;;;;;;;25.93;33.57;101143.38;4931646;29;19923;-83
2022/05/04 11:28:07;;;;;;;3.90;3.60;;;;;;;26.98;33.44;101276.63;4936920;28;20105;-84
2022/05/04 11:30:33;;;;;;;4.00;3.70;;;;;;;26.54;33.38;101188.75;4965217;28;20050;-83
2022/05/04 11:33:06;;;;;;;4.88;4.38;;;;;;;27.16;32.95;101262.16;4949543;28;20055;-84
2022/05/04 11:35:33;;;;;;;4.15;3.85;;;;;;;27.30;32.33;101251.09;4948700;28;20460;-84
2022/05/04 11:38:00;;;;;;;11.13;4.10;;;;;;;27.17;32.53;101236.56;4965928;28;20047;-83
2022/05/04 11:40:27;;;;;;;4.40;4.00;;;;;;;26.77;32.96;101166.25;4948890;28;20640;-84
2022/05/04 11:42:54;;;;;;;4.80;4.40;;;;;;;26.92;32.08;101184.94;4966037;28;20058;-83
2022/05/04 11:45:20;;;;;;;5.28;4.78;;;;;;;27.30;31.53;101243.72;4968098;28;20058;-83
2022/05/04 11:47:47;;;;;;;6.28;4.20;;;;;;;27.45;31.75;101279.59;4951357;28;20081;-85
2022/05/04 11:50:14;;;;;;;4.15;3.75;;;;;;;26.94;32.01;101234.53;4950304;28;20043;-84
2022/05/04 11:52:41;;;;;;;4.68;4.20;;;;;;;26.93;32.56;101281.94;4924546;28;20411;-85
2022/05/04 11:55:08;;;;;;;6.60;4.82;;;;;;;26.58;32.99;101266.22;4911866;29;20402;-83
2022/05/04 11:57:42;;;;;;;4.63;4.22;;;;;;;26.37;33.28;101274.78;4912655;29;20051;-83